sensor_id;sensor_type;location;lat;lon;timestamp;P1;durP1;ratioP1;P2;durP2;ratioP2
57023;SDS011;42916;54.346;18.562;2023-02-15T00:01:46;19.10;;;10.90;;
57023;SDS011;42916;54.346;18.562;2023-02-15T00:04:23;18.40;;;10.50;;
57023;SDS011;42916;54.346;18.562;2023-02-15T00:07:16;20.50;;;11.40;;
57023;SDS011;42916;54.346;18.562;2023-02-15T00:10:24;19.20;;;10.50;;
57023;SDS011;42916;54.346;18.562;2023-02-15T00:16:08;20.70;;;11.10;;
57023;SDS011;42916;54.346;18.562;2023-02-15T00:18:53;20.30;;;10.50;;
57023;SDS011;42916;54.346;18.562;2023-02-15T00:25:01;21.00;;;10.70;;
57023;SDS011;42916;54.346;18.562;2023-02-15T00:27:48;37.50;;;14.60;;
57023;SDS011;42916;54.346;18.562;2023-02-15T00:34:01;26.70;;;13.10;;
57023;SDS011;42916;54.346;18.562;2023-02-15T00:36:44;23.20;;;11.60;;
57023;SDS011;42916;54.346;18.562;2023-02-15T00:39:17;29.40;;;13.20;;
57023;SDS011;42916;54.346;18.562;2023-02-15T00:42:04;23.20;;;12.20;;
57023;SDS011;42916;54.346;18.562;2023-02-15T00:45:00;25.10;;;11.90;;
57023;SDS011;42916;54.346;18.562;2023-02-15T00:47:47;22.20;;;12.40;;
57023;SDS011;42916;54.346;18.562;2023-02-15T00:50:17;23.70;;;11.30;;
57023;SDS011;42916;54.346;18.562;2023-02-15T00:55:13;21.40;;;11.60;;
57023;SDS011;42916;54.346;18.562;2023-02-15T01:01:18;23.60;;;12.60;;
57023;SDS011;42916;54.346;18.562;2023-02-15T01:07:32;21.10;;;11.30;;
57023;SDS011;42916;54.346;18.562;2023-02-15T01:13:35;21.20;;;12.30;;
57023;SDS011;42916;54.346;18.562;2023-02-15T01:16:18;21.10;;;12.70;;
57023;SDS011;42916;54.346;18.562;2023-02-15T01:18:59;23.70;;;13.00;;
57023;SDS011;42916;54.346;18.562;2023-02-15T01:21:36;22.70;;;12.80;;
57023;SDS011;42916;54.346;18.562;2023-02-15T01:24:12;26.20;;;13.90;;
57023;SDS011;42916;54.346;18.562;2023-02-15T01:33:17;24.60;;;12.80;;
57023;SDS011;42916;54.346;18.562;2023-02-15T01:35:45;23.90;;;13.20;;
57023;SDS011;42916;54.346;18.562;2023-02-15T01:38:22;23.10;;;14.00;;
57023;SDS011;42916;54.346;18.562;2023-02-15T01:41:45;25.80;;;13.70;;
57023;SDS011;42916;54.346;18.562;2023-02-15T01:51:07;26.30;;;13.50;;
57023;SDS011;42916;54.346;18.562;2023-02-15T01:54:20;24.90;;;13.00;;
57023;SDS011;42916;54.346;18.562;2023-02-15T02:00:42;27.60;;;13.90;;
57023;SDS011;42916;54.346;18.562;2023-02-15T02:03:10;25.90;;;14.10;;
57023;SDS011;42916;54.346;18.562;2023-02-15T02:06:09;25.20;;;14.50;;
57023;SDS011;42916;54.346;18.562;2023-02-15T02:09:01;24.00;;;13.90;;
57023;SDS011;42916;54.346;18.562;2023-02-15T02:11:32;25.00;;;14.10;;
57023;SDS011;42916;54.346;18.562;2023-02-15T02:43:38;28.10;;;14.60;;
57023;SDS011;42916;54.346;18.562;2023-02-15T02:50:03;25.60;;;13.90;;
57023;SDS011;42916;54.346;18.562;2023-02-15T02:53:10;27.80;;;14.20;;
57023;SDS011;42916;54.346;18.562;2023-02-15T03:03:36;29.40;;;15.40;;
57023;SDS011;42916;54.346;18.562;2023-02-15T03:15:36;23.00;;;13.20;;
57023;SDS011;42916;54.346;18.562;2023-02-15T03:18:56;25.60;;;14.30;;
57023;SDS011;42916;54.346;18.562;2023-02-15T03:22:21;29.00;;;14.80;;
57023;SDS011;42916;54.346;18.562;2023-02-15T03:28:55;23.70;;;12.60;;
57023;SDS011;42916;54.346;18.562;2023-02-15T03:38:17;24.50;;;12.00;;
57023;SDS011;42916;54.346;18.562;2023-02-15T03:40:58;25.50;;;12.70;;
57023;SDS011;42916;54.346;18.562;2023-02-15T03:44:19;26.90;;;13.90;;
57023;SDS011;42916;54.346;18.562;2023-02-15T03:53:54;27.70;;;13.10;;
57023;SDS011;42916;54.346;18.562;2023-02-15T03:57:10;28.20;;;13.60;;
57023;SDS011;42916;54.346;18.562;2023-02-15T04:00:47;28.70;;;13.60;;
57023;SDS011;42916;54.346;18.562;2023-02-15T04:04:05;29.60;;;14.00;;
57023;SDS011;42916;54.346;18.562;2023-02-15T04:06:59;21.60;;;12.40;;
57023;SDS011;42916;54.346;18.562;2023-02-15T04:09:48;24.60;;;13.00;;
57023;SDS011;42916;54.346;18.562;2023-02-15T04:13:02;24.80;;;12.30;;
57023;SDS011;42916;54.346;18.562;2023-02-15T04:15:30;25.60;;;13.20;;
57023;SDS011;42916;54.346;18.562;2023-02-15T04:18:27;21.60;;;12.30;;
57023;SDS011;42916;54.346;18.562;2023-02-15T04:21:30;21.00;;;11.50;;
57023;SDS011;42916;54.346;18.562;2023-02-15T04:24:37;27.30;;;13.90;;
57023;SDS011;42916;54.346;18.562;2023-02-15T04:27:39;22.70;;;12.30;;
57023;SDS011;42916;54.346;18.562;2023-02-15T04:30:28;22.20;;;12.20;;
57023;SDS011;42916;54.346;18.562;2023-02-15T04:33:20;22.90;;;11.90;;
57023;SDS011;42916;54.346;18.562;2023-02-15T04:36:00;25.40;;;12.50;;
57023;SDS011;42916;54.346;18.562;2023-02-15T04:39:17;21.60;;;12.40;;
57023;SDS011;42916;54.346;18.562;2023-02-15T04:42:18;23.20;;;11.80;;
57023;SDS011;42916;54.346;18.562;2023-02-15T04:48:09;26.20;;;12.90;;
57023;SDS011;42916;54.346;18.562;2023-02-15T04:50:55;21.20;;;11.50;;
57023;SDS011;42916;54.346;18.562;2023-02-15T04:53:54;21.80;;;11.60;;
57023;SDS011;42916;54.346;18.562;2023-02-15T04:56:23;20.20;;;11.50;;
57023;SDS011;42916;54.346;18.562;2023-02-15T04:59:13;20.00;;;11.40;;
57023;SDS011;42916;54.346;18.562;2023-02-15T05:04:11;22.90;;;10.60;;
57023;SDS011;42916;54.346;18.562;2023-02-15T05:10:38;17.50;;;10.40;;
57023;SDS011;42916;54.346;18.562;2023-02-15T05:13:17;22.20;;;11.70;;
57023;SDS011;42916;54.346;18.562;2023-02-15T05:15:53;19.60;;;11.40;;
57023;SDS011;42916;54.346;18.562;2023-02-15T05:18:31;22.70;;;11.10;;
57023;SDS011;42916;54.346;18.562;2023-02-15T05:21:13;20.80;;;11.00;;
57023;SDS011;42916;54.346;18.562;2023-02-15T05:23:59;20.40;;;10.50;;
57023;SDS011;42916;54.346;18.562;2023-02-15T05:26:51;18.30;;;11.50;;
57023;SDS011;42916;54.346;18.562;2023-02-15T05:29:52;21.50;;;11.40;;
57023;SDS011;42916;54.346;18.562;2023-02-15T05:32:40;20.40;;;11.00;;
57023;SDS011;42916;54.346;18.562;2023-02-15T05:38:28;19.70;;;10.90;;
57023;SDS011;42916;54.346;18.562;2023-02-15T05:44:08;18.30;;;10.70;;
57023;SDS011;42916;54.346;18.562;2023-02-15T05:46:44;21.20;;;10.30;;
57023;SDS011;42916;54.346;18.562;2023-02-15T05:49:16;21.90;;;10.80;;
57023;SDS011;42916;54.346;18.562;2023-02-15T05:52:04;18.60;;;10.70;;
57023;SDS011;42916;54.346;18.562;2023-02-15T05:54:33;22.00;;;10.50;;
57023;SDS011;42916;54.346;18.562;2023-02-15T05:57:03;20.70;;;10.80;;
57023;SDS011;42916;54.346;18.562;2023-02-15T05:59:39;20.70;;;11.30;;
57023;SDS011;42916;54.346;18.562;2023-02-15T06:02:06;22.00;;;10.20;;
57023;SDS011;42916;54.346;18.562;2023-02-15T06:04:33;17.70;;;9.90;;
57023;SDS011;42916;54.346;18.562;2023-02-15T06:07:08;20.50;;;9.90;;
57023;SDS011;42916;54.346;18.562;2023-02-15T06:10:04;16.50;;;9.30;;
57023;SDS011;42916;54.346;18.562;2023-02-15T06:12:35;16.90;;;9.90;;
57023;SDS011;42916;54.346;18.562;2023-02-15T06:15:11;21.00;;;11.10;;
57023;SDS011;42916;54.346;18.562;2023-02-15T06:17:49;20.50;;;10.60;;
57023;SDS011;42916;54.346;18.562;2023-02-15T06:20:39;18.60;;;10.40;;
57023;SDS011;42916;54.346;18.562;2023-02-15T06:23:32;21.10;;;10.70;;
57023;SDS011;42916;54.346;18.562;2023-02-15T06:25:59;20.60;;;11.20;;
57023;SDS011;42916;54.346;18.562;2023-02-15T06:28:30;19.90;;;10.80;;
57023;SDS011;42916;54.346;18.562;2023-02-15T06:30:59;18.60;;;10.50;;
57023;SDS011;42916;54.346;18.562;2023-02-15T06:46:31;25.60;;;12.60;;
57023;SDS011;42916;54.346;18.562;2023-02-15T06:52:58;21.60;;;11.30;;
57023;SDS011;42916;54.346;18.562;2023-02-15T06:56:25;20.50;;;12.10;;
57023;SDS011;42916;54.346;18.562;2023-02-15T06:59:25;22.10;;;11.80;;
57023;SDS011;42916;54.346;18.562;2023-02-15T07:09:58;27.70;;;12.60;;
57023;SDS011;42916;54.346;18.562;2023-02-15T07:16:09;22.70;;;11.80;;
57023;SDS011;42916;54.346;18.562;2023-02-15T07:19:07;24.30;;;12.10;;
57023;SDS011;42916;54.346;18.562;2023-02-15T07:29:38;23.10;;;12.60;;
57023;SDS011;42916;54.346;18.562;2023-02-15T07:33:08;24.70;;;12.40;;
57023;SDS011;42916;54.346;18.562;2023-02-15T08:02:09;22.90;;;11.70;;
57023;SDS011;42916;54.346;18.562;2023-02-15T08:18:44;25.80;;;13.00;;
57023;SDS011;42916;54.346;18.562;2023-02-15T08:51:52;19.70;;;11.40;;
57023;SDS011;42916;54.346;18.562;2023-02-15T09:05:31;18.40;;;11.50;;
57023;SDS011;42916;54.346;18.562;2023-02-15T09:08:30;22.40;;;11.90;;
57023;SDS011;42916;54.346;18.562;2023-02-15T09:18:33;26.90;;;12.10;;
57023;SDS011;42916;54.346;18.562;2023-02-15T09:35:29;23.70;;;12.10;;
57023;SDS011;42916;54.346;18.562;2023-02-15T09:54:21;21.10;;;11.30;;
57023;SDS011;42916;54.346;18.562;2023-02-15T11:06:37;26.10;;;13.90;;
57023;SDS011;42916;54.346;18.562;2023-02-15T11:12:51;28.30;;;15.10;;
57023;SDS011;42916;54.346;18.562;2023-02-15T11:35:29;32.20;;;16.40;;
57023;SDS011;42916;54.346;18.562;2023-02-15T11:38:27;26.80;;;15.90;;
57023;SDS011;42916;54.346;18.562;2023-02-15T11:41:09;33.70;;;16.30;;
57023;SDS011;42916;54.346;18.562;2023-02-15T11:44:05;29.40;;;15.90;;
57023;SDS011;42916;54.346;18.562;2023-02-15T11:50:47;32.20;;;17.70;;
57023;SDS011;42916;54.346;18.562;2023-02-15T11:53:51;33.40;;;17.70;;
57023;SDS011;42916;54.346;18.562;2023-02-15T12:01:01;26.70;;;15.90;;
57023;SDS011;42916;54.346;18.562;2023-02-15T12:10:34;28.60;;;17.10;;
57023;SDS011;42916;54.346;18.562;2023-02-15T12:17:12;27.50;;;15.80;;
57023;SDS011;42916;54.346;18.562;2023-02-15T12:19:57;28.50;;;16.50;;
57023;SDS011;42916;54.346;18.562;2023-02-15T12:25:42;28.70;;;17.30;;
57023;SDS011;42916;54.346;18.562;2023-02-15T12:32:02;33.40;;;17.90;;
57023;SDS011;42916;54.346;18.562;2023-02-15T12:37:39;28.50;;;16.50;;
57023;SDS011;42916;54.346;18.562;2023-02-15T12:40:30;28.70;;;17.30;;
57023;SDS011;42916;54.346;18.562;2023-02-15T12:42:59;27.50;;;17.50;;
57023;SDS011;42916;54.346;18.562;2023-02-15T12:45:37;27.80;;;16.70;;
57023;SDS011;42916;54.346;18.562;2023-02-15T12:50:36;26.10;;;15.80;;
57023;SDS011;42916;54.346;18.562;2023-02-15T12:56:13;30.20;;;17.40;;
57023;SDS011;42916;54.346;18.562;2023-02-15T12:59:13;32.00;;;17.00;;
57023;SDS011;42916;54.346;18.562;2023-02-15T13:06:35;30.30;;;15.80;;
57023;SDS011;42916;54.346;18.562;2023-02-15T13:12:58;25.80;;;14.50;;
57023;SDS011;42916;54.346;18.562;2023-02-15T13:23:35;27.70;;;16.20;;
57023;SDS011;42916;54.346;18.562;2023-02-15T13:45:48;25.80;;;15.50;;
57023;SDS011;42916;54.346;18.562;2023-02-15T13:57:11;26.70;;;15.30;;
57023;SDS011;42916;54.346;18.562;2023-02-15T15:07:18;37.60;;;19.50;;
57023;SDS011;42916;54.346;18.562;2023-02-15T15:49:15;49.30;;;23.10;;
57023;SDS011;42916;54.346;18.562;2023-02-15T15:51:56;43.10;;;22.30;;
57023;SDS011;42916;54.346;18.562;2023-02-15T15:55:36;41.90;;;22.20;;
57023;SDS011;42916;54.346;18.562;2023-02-15T15:57:59;43.10;;;21.40;;
57023;SDS011;42916;54.346;18.562;2023-02-15T16:06:57;46.90;;;21.20;;
57023;SDS011;42916;54.346;18.562;2023-02-15T16:09:38;47.70;;;21.50;;
57023;SDS011;42916;54.346;18.562;2023-02-15T16:12:13;46.60;;;22.70;;
57023;SDS011;42916;54.346;18.562;2023-02-15T16:14:52;44.90;;;21.80;;
57023;SDS011;42916;54.346;18.562;2023-02-15T16:17:42;46.30;;;21.80;;
57023;SDS011;42916;54.346;18.562;2023-02-15T16:33:37;46.00;;;21.80;;
57023;SDS011;42916;54.346;18.562;2023-02-15T16:36:28;48.00;;;23.40;;
57023;SDS011;42916;54.346;18.562;2023-02-15T16:41:44;42.30;;;20.80;;
57023;SDS011;42916;54.346;18.562;2023-02-15T16:44:33;49.70;;;23.00;;
57023;SDS011;42916;54.346;18.562;2023-02-15T16:50:01;54.10;;;24.30;;
57023;SDS011;42916;54.346;18.562;2023-02-15T16:52:30;51.30;;;24.40;;
57023;SDS011;42916;54.346;18.562;2023-02-15T16:58:31;48.60;;;23.50;;
57023;SDS011;42916;54.346;18.562;2023-02-15T17:01:06;57.90;;;25.20;;
57023;SDS011;42916;54.346;18.562;2023-02-15T17:06:42;51.90;;;25.30;;
57023;SDS011;42916;54.346;18.562;2023-02-15T17:23:33;60.30;;;26.40;;
57023;SDS011;42916;54.346;18.562;2023-02-15T17:33:59;59.30;;;27.10;;
57023;SDS011;42916;54.346;18.562;2023-02-15T17:50:32;79.00;;;33.10;;
57023;SDS011;42916;54.346;18.562;2023-02-15T17:54:10;73.40;;;31.00;;
57023;SDS011;42916;54.346;18.562;2023-02-15T18:03:51;66.10;;;27.60;;
57023;SDS011;42916;54.346;18.562;2023-02-15T18:06:37;78.40;;;32.10;;
57023;SDS011;42916;54.346;18.562;2023-02-15T18:13:15;72.50;;;30.30;;
57023;SDS011;42916;54.346;18.562;2023-02-15T18:15:45;72.40;;;31.70;;
57023;SDS011;42916;54.346;18.562;2023-02-15T18:18:22;71.60;;;31.10;;
57023;SDS011;42916;54.346;18.562;2023-02-15T18:20:49;77.40;;;31.60;;
57023;SDS011;42916;54.346;18.562;2023-02-15T18:23:16;79.00;;;32.60;;
57023;SDS011;42916;54.346;18.562;2023-02-15T18:25:44;81.00;;;32.20;;
57023;SDS011;42916;54.346;18.562;2023-02-15T18:28:16;73.00;;;32.10;;
57023;SDS011;42916;54.346;18.562;2023-02-15T18:30:43;78.40;;;34.30;;
57023;SDS011;42916;54.346;18.562;2023-02-15T18:36:22;75.40;;;31.90;;
57023;SDS011;42916;54.346;18.562;2023-02-15T18:38:54;70.30;;;30.10;;
57023;SDS011;42916;54.346;18.562;2023-02-15T18:41:22;71.30;;;30.10;;
57023;SDS011;42916;54.346;18.562;2023-02-15T18:43:49;63.00;;;28.00;;
57023;SDS011;42916;54.346;18.562;2023-02-15T18:46:18;73.40;;;31.60;;
57023;SDS011;42916;54.346;18.562;2023-02-15T18:48:54;77.00;;;31.20;;
57023;SDS011;42916;54.346;18.562;2023-02-15T18:51:30;65.30;;;28.90;;
57023;SDS011;42916;54.346;18.562;2023-02-15T18:54:18;67.80;;;29.20;;
57023;SDS011;42916;54.346;18.562;2023-02-15T18:56:52;66.10;;;28.90;;
57023;SDS011;42916;54.346;18.562;2023-02-15T18:59:37;62.50;;;25.90;;
57023;SDS011;42916;54.346;18.562;2023-02-15T19:02:14;71.80;;;29.30;;
57023;SDS011;42916;54.346;18.562;2023-02-15T19:05:06;72.20;;;29.10;;
57023;SDS011;42916;54.346;18.562;2023-02-15T19:07:32;74.00;;;31.00;;
57023;SDS011;42916;54.346;18.562;2023-02-15T19:16:26;70.60;;;31.30;;
57023;SDS011;42916;54.346;18.562;2023-02-15T19:18:55;73.70;;;31.50;;
57023;SDS011;42916;54.346;18.562;2023-02-15T19:21:31;72.70;;;30.70;;
57023;SDS011;42916;54.346;18.562;2023-02-15T19:26:50;76.10;;;31.10;;
57023;SDS011;42916;54.346;18.562;2023-02-15T19:29:50;70.00;;;29.80;;
57023;SDS011;42916;54.346;18.562;2023-02-15T19:32:48;69.10;;;29.10;;
57023;SDS011;42916;54.346;18.562;2023-02-15T19:38:06;66.60;;;30.00;;
57023;SDS011;42916;54.346;18.562;2023-02-15T19:40:40;72.70;;;31.40;;
57023;SDS011;42916;54.346;18.562;2023-02-15T19:43:29;68.60;;;29.00;;
57023;SDS011;42916;54.346;18.562;2023-02-15T19:45:56;78.80;;;31.70;;
57023;SDS011;42916;54.346;18.562;2023-02-15T19:51:38;81.60;;;32.60;;
57023;SDS011;42916;54.346;18.562;2023-02-15T19:54:43;80.30;;;32.80;;
57023;SDS011;42916;54.346;18.562;2023-02-15T20:00:15;99.40;;;44.10;;
57023;SDS011;42916;54.346;18.562;2023-02-15T20:03:06;78.90;;;33.30;;
57023;SDS011;42916;54.346;18.562;2023-02-15T20:05:36;81.30;;;32.40;;
57023;SDS011;42916;54.346;18.562;2023-02-15T20:08:32;83.10;;;33.50;;
57023;SDS011;42916;54.346;18.562;2023-02-15T20:11:22;74.50;;;29.70;;
57023;SDS011;42916;54.346;18.562;2023-02-15T20:13:52;73.60;;;31.10;;
57023;SDS011;42916;54.346;18.562;2023-02-15T20:16:45;75.90;;;31.30;;
57023;SDS011;42916;54.346;18.562;2023-02-15T20:19:33;73.80;;;30.80;;
57023;SDS011;42916;54.346;18.562;2023-02-15T20:22:05;78.40;;;31.10;;
57023;SDS011;42916;54.346;18.562;2023-02-15T20:24:42;77.60;;;31.40;;
57023;SDS011;42916;54.346;18.562;2023-02-15T20:28:10;74.40;;;31.10;;
57023;SDS011;42916;54.346;18.562;2023-02-15T20:30:47;80.60;;;31.40;;
57023;SDS011;42916;54.346;18.562;2023-02-15T20:33:36;76.90;;;31.60;;
57023;SDS011;42916;54.346;18.562;2023-02-15T20:36:11;82.10;;;32.40;;
57023;SDS011;42916;54.346;18.562;2023-02-15T20:38:40;71.90;;;28.80;;
57023;SDS011;42916;54.346;18.562;2023-02-15T20:48:11;71.60;;;29.70;;
57023;SDS011;42916;54.346;18.562;2023-02-15T20:50:40;83.50;;;30.80;;
57023;SDS011;42916;54.346;18.562;2023-02-15T20:53:15;80.50;;;31.60;;
57023;SDS011;42916;54.346;18.562;2023-02-15T20:56:08;77.90;;;32.50;;
57023;SDS011;42916;54.346;18.562;2023-02-15T20:59:20;88.00;;;34.70;;
57023;SDS011;42916;54.346;18.562;2023-02-15T21:02:19;76.60;;;31.60;;
57023;SDS011;42916;54.346;18.562;2023-02-15T21:04:49;84.20;;;33.30;;
57023;SDS011;42916;54.346;18.562;2023-02-15T21:07:19;80.10;;;32.30;;
57023;SDS011;42916;54.346;18.562;2023-02-15T21:09:49;88.60;;;32.40;;
57023;SDS011;42916;54.346;18.562;2023-02-15T21:12:19;86.10;;;34.20;;
57023;SDS011;42916;54.346;18.562;2023-02-15T21:14:58;79.20;;;31.30;;
57023;SDS011;42916;54.346;18.562;2023-02-15T21:17:25;86.40;;;33.50;;
57023;SDS011;42916;54.346;18.562;2023-02-15T21:20:00;93.30;;;35.40;;
57023;SDS011;42916;54.346;18.562;2023-02-15T21:22:31;91.90;;;34.60;;
57023;SDS011;42916;54.346;18.562;2023-02-15T21:25:02;92.90;;;34.10;;
57023;SDS011;42916;54.346;18.562;2023-02-15T21:30:21;93.10;;;35.60;;
57023;SDS011;42916;54.346;18.562;2023-02-15T21:33:09;86.10;;;33.20;;
57023;SDS011;42916;54.346;18.562;2023-02-15T21:35:36;94.00;;;36.00;;
57023;SDS011;42916;54.346;18.562;2023-02-15T21:38:04;90.70;;;35.50;;
57023;SDS011;42916;54.346;18.562;2023-02-15T21:40:32;88.70;;;36.20;;
57023;SDS011;42916;54.346;18.562;2023-02-15T21:42:59;95.10;;;36.70;;
57023;SDS011;42916;54.346;18.562;2023-02-15T21:45:44;92.30;;;34.30;;
57023;SDS011;42916;54.346;18.562;2023-02-15T21:48:35;97.80;;;35.90;;
57023;SDS011;42916;54.346;18.562;2023-02-15T21:51:03;88.80;;;35.40;;
57023;SDS011;42916;54.346;18.562;2023-02-15T21:56:54;95.30;;;36.40;;
57023;SDS011;42916;54.346;18.562;2023-02-15T21:59:24;97.40;;;37.30;;
57023;SDS011;42916;54.346;18.562;2023-02-15T22:05:00;100.20;;;36.10;;
57023;SDS011;42916;54.346;18.562;2023-02-15T22:07:27;99.90;;;36.10;;
57023;SDS011;42916;54.346;18.562;2023-02-15T22:09:54;92.50;;;35.30;;
57023;SDS011;42916;54.346;18.562;2023-02-15T22:12:21;92.90;;;35.50;;
57023;SDS011;42916;54.346;18.562;2023-02-15T22:14:51;93.70;;;34.50;;
57023;SDS011;42916;54.346;18.562;2023-02-15T22:17:22;87.10;;;34.60;;
57023;SDS011;42916;54.346;18.562;2023-02-15T22:19:51;96.40;;;36.70;;
57023;SDS011;42916;54.346;18.562;2023-02-15T22:22:18;97.80;;;37.30;;
57023;SDS011;42916;54.346;18.562;2023-02-15T22:24:45;91.30;;;35.90;;
57023;SDS011;42916;54.346;18.562;2023-02-15T22:27:22;91.80;;;35.00;;
57023;SDS011;42916;54.346;18.562;2023-02-15T22:29:51;90.70;;;35.80;;
57023;SDS011;42916;54.346;18.562;2023-02-15T22:32:20;92.40;;;34.30;;
57023;SDS011;42916;54.346;18.562;2023-02-15T22:34:49;95.00;;;36.50;;
57023;SDS011;42916;54.346;18.562;2023-02-15T22:37:17;97.90;;;36.50;;
57023;SDS011;42916;54.346;18.562;2023-02-15T22:39:44;87.70;;;33.40;;
57023;SDS011;42916;54.346;18.562;2023-02-15T22:42:17;102.40;;;38.80;;
57023;SDS011;42916;54.346;18.562;2023-02-15T22:47:19;110.10;;;38.80;;
57023;SDS011;42916;54.346;18.562;2023-02-15T22:49:48;97.20;;;38.80;;
57023;SDS011;42916;54.346;18.562;2023-02-15T22:52:15;92.80;;;35.00;;
57023;SDS011;42916;54.346;18.562;2023-02-15T22:54:43;97.00;;;36.10;;
57023;SDS011;42916;54.346;18.562;2023-02-15T22:57:17;98.30;;;35.60;;
57023;SDS011;42916;54.346;18.562;2023-02-15T22:59:48;95.50;;;34.20;;
57023;SDS011;42916;54.346;18.562;2023-02-15T23:02:15;90.40;;;34.70;;
57023;SDS011;42916;54.346;18.562;2023-02-15T23:04:43;96.80;;;35.40;;
57023;SDS011;42916;54.346;18.562;2023-02-15T23:07:14;94.40;;;34.60;;
57023;SDS011;42916;54.346;18.562;2023-02-15T23:09:43;95.50;;;35.70;;
57023;SDS011;42916;54.346;18.562;2023-02-15T23:14:51;85.10;;;32.80;;
57023;SDS011;42916;54.346;18.562;2023-02-15T23:17:19;93.00;;;34.70;;
57023;SDS011;42916;54.346;18.562;2023-02-15T23:19:46;97.60;;;36.20;;
57023;SDS011;42916;54.346;18.562;2023-02-15T23:22:14;100.90;;;37.80;;
57023;SDS011;42916;54.346;18.562;2023-02-15T23:24:45;95.70;;;35.40;;
57023;SDS011;42916;54.346;18.562;2023-02-15T23:27:17;100.20;;;36.10;;
57023;SDS011;42916;54.346;18.562;2023-02-15T23:30:03;94.30;;;35.20;;
57023;SDS011;42916;54.346;18.562;2023-02-15T23:32:32;85.90;;;32.50;;
57023;SDS011;42916;54.346;18.562;2023-02-15T23:34:59;86.00;;;31.00;;
57023;SDS011;42916;54.346;18.562;2023-02-15T23:37:26;93.10;;;33.40;;
57023;SDS011;42916;54.346;18.562;2023-02-15T23:39:53;94.80;;;35.50;;
57023;SDS011;42916;54.346;18.562;2023-02-15T23:42:38;96.20;;;33.70;;
57023;SDS011;42916;54.346;18.562;2023-02-15T23:45:10;94.60;;;34.70;;
57023;SDS011;42916;54.346;18.562;2023-02-15T23:47:47;94.90;;;34.20;;
57023;SDS011;42916;54.346;18.562;2023-02-15T23:50:33;88.70;;;33.10;;
57023;SDS011;42916;54.346;18.562;2023-02-15T23:53:00;86.10;;;31.90;;
57023;SDS011;42916;54.346;18.562;2023-02-15T23:55:32;96.80;;;34.90;;
57023;SDS011;42916;54.346;18.562;2023-02-15T23:58:02;100.00;;;34.70;;
